createdAt,value
2022-10-23T00:01:51.236Z,101493.31
2022-10-23T00:04:30.917Z,101480.25
2022-10-23T00:06:57.412Z,101483.22
2022-10-23T00:09:24.720Z,101480.53
2022-10-23T00:11:52.107Z,101478.88
2022-10-23T00:14:21.417Z,101482.66
2022-10-23T00:16:47.859Z,101479.41
2022-10-23T00:19:24.287Z,101484.81
2022-10-23T00:21:52.761Z,101492.41
2022-10-23T00:24:37.701Z,101484.25
2022-10-23T00:27:09.268Z,101488.63
2022-10-23T00:29:35.631Z,101486.97
2022-10-23T00:32:09.272Z,101484.50
2022-10-23T00:34:53.286Z,101480.41
2022-10-23T00:37:48.563Z,101480.41
2022-10-23T00:40:30.332Z,101477.16
2022-10-23T00:42:58.831Z,101475.50
2022-10-23T00:45:34.647Z,101473.31
2022-10-23T00:49:01.223Z,101464.31
2022-10-23T00:51:33.743Z,101463.53
2022-10-23T00:54:22.769Z,101468.94
2022-10-23T00:56:49.381Z,101470.59
2022-10-23T00:59:15.832Z,101472.22
2022-10-23T01:01:42.435Z,101469.50
2022-10-23T01:04:17.719Z,101466.81
2022-10-23T01:07:16.199Z,101459.72
2022-10-23T01:10:38.135Z,101468.44
2022-10-23T01:13:19.949Z,101468.44
2022-10-23T01:15:57.366Z,101470.88
2022-10-23T01:18:41.583Z,101480.41
2022-10-23T01:21:23.930Z,101459.50
2022-10-23T01:24:00.864Z,101464.94
2022-10-23T01:26:45.659Z,101453.28
2022-10-23T01:29:49.481Z,101458.72
2022-10-23T01:32:29.045Z,101453.28
2022-10-23T01:35:20.819Z,101460.34
2022-10-23T01:37:56.199Z,101457.34
2022-10-23T01:40:48.920Z,101450.06
2022-10-23T01:43:27.770Z,101454.41
2022-10-23T01:46:02.204Z,101444.34
2022-10-23T01:48:31.835Z,101443.53
2022-10-23T01:51:01.703Z,101445.19
2022-10-23T01:53:31.212Z,101440.00
2022-10-23T01:56:01.040Z,101435.41
2022-10-23T01:58:28.853Z,101434.31
2022-10-23T02:01:01.209Z,101425.63
2022-10-23T02:03:30.960Z,101422.91
2022-10-23T02:06:01.915Z,101420.19
2022-10-23T02:08:32.658Z,101417.47
2022-10-23T02:11:07.158Z,101411.50
2022-10-23T02:13:44.114Z,101410.66
2022-10-23T02:16:46.071Z,101410.94
2022-10-23T02:19:54.731Z,101407.66
2022-10-23T02:22:40.897Z,101405.47
2022-10-23T02:25:14.025Z,101400.03
2022-10-23T02:28:01.028Z,101393.19
2022-10-23T02:30:42.691Z,101393.47
2022-10-23T02:33:11.456Z,101384.50
2022-10-23T02:35:37.911Z,101378.28
2022-10-23T02:38:28.695Z,101379.34
2022-10-23T02:41:25.055Z,101372.28
2022-10-23T02:44:06.720Z,101377.16
2022-10-23T02:47:14.181Z,101382.56
2022-10-23T02:50:06.852Z,101372.81
2022-10-23T02:52:44.040Z,101375.50
2022-10-23T02:55:35.989Z,101383.66
2022-10-23T02:58:26.740Z,101375.25
2022-10-23T03:01:11.395Z,101372.81
2022-10-23T03:04:06.525Z,101379.31
2022-10-23T03:06:34.131Z,101377.38
2022-10-23T03:09:07.484Z,101353.25
2022-10-23T03:11:42.920Z,101358.66
2022-10-23T03:14:16.516Z,101361.09
2022-10-23T03:16:42.897Z,101354.88
2022-10-23T03:19:09.689Z,101351.91
2022-10-23T03:21:36.425Z,101348.09
2022-10-23T03:24:02.917Z,101342.44
2022-10-23T03:26:29.364Z,101343.25
2022-10-23T03:28:59.819Z,101345.16
2022-10-23T03:31:26.176Z,101343.00
2022-10-23T03:34:07.515Z,101340.53
2022-10-23T03:36:34.624Z,101342.16
2022-10-23T03:39:01.224Z,101336.50
2022-10-23T03:41:58.807Z,101326.44
2022-10-23T03:44:31.106Z,101324.56
2022-10-23T03:46:57.846Z,101320.75
2022-10-23T03:49:28.595Z,101324.28
2022-10-23T03:51:55.048Z,101326.19
2022-10-23T03:54:23.871Z,101319.13
2022-10-23T03:56:57.951Z,101306.63
2022-10-23T04:00:17.085Z,101312.06
2022-10-23T04:02:44.113Z,101301.72
2022-10-23T04:05:11.559Z,101298.47
2022-10-23T04:07:46.076Z,101287.59
2022-10-23T04:10:19.602Z,101280.53
2022-10-23T04:12:46.209Z,101276.19
2022-10-23T04:15:35.632Z,101269.13
2022-10-23T04:18:02.174Z,101274.00
2022-10-23T04:20:39.015Z,101271.28
2022-10-23T04:23:06.511Z,101270.22
2022-10-23T04:25:43.108Z,101268.56
2022-10-23T04:28:55.092Z,101254.16
2022-10-23T04:31:21.533Z,101259.03
2022-10-23T04:33:56.022Z,101251.47
2022-10-23T04:36:22.852Z,101256.09
2022-10-23T04:38:49.308Z,101244.41
2022-10-23T04:41:15.663Z,101250.66
2022-10-23T04:43:42.002Z,101249.81
2022-10-23T04:46:12.554Z,101249.03
2022-10-23T04:49:01.754Z,101241.97
2022-10-23T04:51:28.316Z,101246.56
2022-10-23T04:54:09.523Z,101240.88
2022-10-23T04:56:35.963Z,101246.03
2022-10-23T04:59:02.356Z,101239.81
2022-10-23T05:01:34.039Z,101234.38
2022-10-23T05:04:00.568Z,101221.38
2022-10-23T05:06:26.945Z,101223.00
2022-10-23T05:08:53.423Z,101227.91
2022-10-23T05:11:19.829Z,101217.84
2022-10-23T05:13:46.212Z,101226.56
2022-10-23T05:16:42.061Z,101239.34
2022-10-23T05:19:14.136Z,101233.41
2022-10-23T05:21:41.557Z,101218.19
2022-10-23T05:24:36.987Z,101214.41
2022-10-23T05:27:03.396Z,101217.66
2022-10-23T05:29:29.950Z,101228.00
2022-10-23T05:32:01.742Z,101233.97
2022-10-23T05:34:39.086Z,101228.84
2022-10-23T05:37:16.519Z,101225.34
2022-10-23T05:39:43.173Z,101223.97
2022-10-23T05:42:14.641Z,101226.41
2022-10-23T05:44:41.289Z,101219.13
2022-10-23T05:47:13.853Z,101215.34
2022-10-23T05:49:40.299Z,101221.88
2022-10-23T05:52:06.757Z,101216.72
2022-10-23T05:54:33.221Z,101216.72
2022-10-23T05:56:59.563Z,101215.63
2022-10-23T05:59:25.957Z,101212.38
2022-10-23T06:01:56.482Z,101204.00
2022-10-23T06:04:22.924Z,101204.25
2022-10-23T06:07:07.878Z,101197.75
2022-10-23T06:09:34.243Z,101206.72
2022-10-23T06:12:02.766Z,101191.22
2022-10-23T06:14:35.498Z,101192.88
2022-10-23T06:17:01.878Z,101194.25
2022-10-23T06:19:28.265Z,101192.31
2022-10-23T06:24:46.938Z,101178.50
2022-10-23T06:27:13.321Z,101175.50
2022-10-23T06:29:56.077Z,101171.69
2022-10-23T06:32:22.601Z,101173.34
2022-10-23T06:34:50.011Z,101171.69
2022-10-23T06:37:16.450Z,101177.97
2022-10-23T06:40:11.064Z,101169.53
2022-10-23T06:42:37.445Z,101165.19
2022-10-23T06:45:06.530Z,101160.59
2022-10-23T06:47:34.787Z,101165.72
2022-10-23T06:50:17.900Z,101159.22
2022-10-23T06:53:37.413Z,101150.25
2022-10-23T06:56:05.719Z,101151.91
2022-10-23T06:58:32.445Z,101148.91
2022-10-23T07:01:03.680Z,101140.50
2022-10-23T07:03:42.527Z,101148.38
2022-10-23T07:06:10.349Z,101136.97
2022-10-23T07:08:39.934Z,101142.13
2022-10-23T07:11:08.634Z,101130.97
2022-10-23T07:13:36.385Z,101141.31
2022-10-23T07:16:11.428Z,101149.19
2022-10-23T07:18:44.837Z,101149.47
2022-10-23T07:21:17.582Z,101147.31
2022-10-23T07:23:50.237Z,101136.97
2022-10-23T07:26:17.687Z,101140.25
2022-10-23T07:28:46.336Z,101132.34
2022-10-23T07:31:14.607Z,101141.88
2022-10-23T07:33:40.981Z,101138.06
2022-10-23T07:36:08.515Z,101135.06
2022-10-23T07:38:35.580Z,101134.53
2022-10-23T07:41:08.867Z,101135.63
2022-10-23T07:43:42.124Z,101124.22
2022-10-23T07:46:09.898Z,101137.56
2022-10-23T07:48:37.251Z,101132.38
2022-10-23T07:51:08.476Z,101126.41
2022-10-23T07:54:13.105Z,101123.97
2022-10-23T07:56:39.458Z,101112.53
2022-10-23T07:59:05.860Z,101119.03
2022-10-23T08:01:38.394Z,101107.06
2022-10-23T08:04:05.736Z,101096.19
2022-10-23T08:06:32.803Z,101110.31
2022-10-23T08:09:01.006Z,101101.34
2022-10-23T08:11:35.214Z,101109.22
2022-10-23T08:14:04.588Z,101104.06
2022-10-23T08:16:36.758Z,101103.75
2022-10-23T08:19:21.600Z,101104.84
2022-10-23T08:22:09.840Z,101107.00
2022-10-23T08:24:36.206Z,101096.41
2022-10-23T08:27:03.959Z,101097.75
2022-10-23T08:29:30.304Z,101099.91
2022-10-23T08:31:57.413Z,101102.09
2022-10-23T08:34:24.213Z,101107.78
2022-10-23T08:36:50.603Z,101079.19
2022-10-23T08:39:16.992Z,101079.44
2022-10-23T08:41:49.353Z,101079.72
2022-10-23T08:44:52.637Z,101076.44
2022-10-23T08:47:27.468Z,101067.72
2022-10-23T08:50:07.127Z,101061.72
2022-10-23T08:52:45.947Z,101059.22
2022-10-23T08:55:45.208Z,101056.78
2022-10-23T08:58:20.057Z,101040.97
2022-10-23T09:00:47.987Z,101055.66
2022-10-23T09:03:14.513Z,101057.81
2022-10-23T09:06:12.835Z,101055.31
2022-10-23T09:09:02.154Z,101053.41
2022-10-23T09:12:16.787Z,101038.13
2022-10-23T09:15:02.548Z,101033.72
2022-10-23T09:17:31.580Z,101029.63
2022-10-23T09:20:18.740Z,101027.13
2022-10-23T09:22:58.875Z,101022.75
2022-10-23T09:25:48.792Z,101020.56
2022-10-23T09:28:31.564Z,101023.28
2022-10-23T09:31:21.715Z,101018.34
2022-10-23T09:34:12.893Z,101017.03
2022-10-23T09:37:02.639Z,101023.28
2022-10-23T09:40:12.339Z,101012.91
2022-10-23T09:42:49.624Z,101011.81
2022-10-23T09:45:34.627Z,101003.34
2022-10-23T09:48:17.278Z,100990.53
2022-10-23T09:51:20.849Z,100991.06
2022-10-23T09:53:52.219Z,100997.34
2022-10-23T09:56:29.571Z,100988.06
2022-10-23T09:59:00.999Z,100984.50
2022-10-23T10:01:36.274Z,100985.03
2022-10-23T10:04:02.926Z,100987.19
2022-10-23T10:06:32.446Z,100983.91
2022-10-23T10:09:13.712Z,100979.81
2022-10-23T10:11:48.280Z,100974.03
2022-10-23T10:14:29.633Z,100976.19
2022-10-23T10:21:09.633Z,100961.72
2022-10-23T10:23:56.029Z,100964.69
2022-10-23T10:27:04.102Z,100959.75
2022-10-23T10:29:47.057Z,100954.00
2022-10-23T10:32:27.410Z,100937.88
2022-10-23T10:35:03.063Z,100935.97
2022-10-23T10:38:14.065Z,100926.41
2022-10-23T10:41:29.219Z,100927.44
2022-10-23T10:44:30.609Z,100920.59
2022-10-23T10:51:11.548Z,100906.91
2022-10-23T10:53:56.056Z,100890.78
2022-10-23T10:56:43.263Z,100876.84
2022-10-23T10:59:38.021Z,100875.97
2022-10-23T11:02:44.140Z,100868.31
2022-10-23T11:05:11.510Z,100875.09
2022-10-23T11:08:27.799Z,100876.13
2022-10-23T11:11:05.717Z,100870.91
2022-10-23T11:13:38.662Z,100867.88
2022-10-23T11:16:14.261Z,100860.22
2022-10-23T11:19:02.945Z,100861.25
2022-10-23T11:21:42.508Z,100860.13
2022-10-23T11:24:50.750Z,100859.03
2022-10-23T11:27:43.498Z,100856.00
2022-10-23T11:30:48.536Z,100839.88
2022-10-23T11:33:34.799Z,100834.63
2022-10-23T11:36:56.047Z,100825.25
2022-10-23T11:39:26.944Z,100811.53
2022-10-23T11:42:00.080Z,100816.09
2022-10-23T11:44:39.925Z,100816.53
2022-10-23T11:47:31.991Z,100806.06
2022-10-23T11:50:08.567Z,100797.81
2022-10-23T11:53:17.118Z,100793.88
2022-10-23T11:56:01.420Z,100799.47
2022-10-23T11:59:03.447Z,100792.28
2022-10-23T12:01:45.337Z,100785.13
2022-10-23T12:04:27.910Z,100777.84
2022-10-23T12:07:01.200Z,100769.03
2022-10-23T12:09:46.363Z,100782.91
2022-10-23T12:12:17.324Z,100788.06
2022-10-23T12:14:51.256Z,100775.44
2022-10-23T12:17:35.788Z,100775.44
2022-10-23T12:20:29.080Z,100763.06
2022-10-23T12:23:37.110Z,100759.44
2022-10-23T12:26:18.625Z,100749.03
2022-10-23T12:29:30.715Z,100733.13
2022-10-23T12:32:15.885Z,100724.34
2022-10-23T12:35:12.651Z,100723.81
2022-10-23T12:37:55.187Z,100725.44
2022-10-23T12:40:30.040Z,100726.75
2022-10-23T12:42:59.544Z,100719.84
2022-10-23T12:45:33.470Z,100727.75
2022-10-23T12:48:00.918Z,100716.50
2022-10-23T12:50:35.391Z,100712.38
2022-10-23T12:53:04.536Z,100709.31
2022-10-23T12:55:47.610Z,100709.81
2022-10-23T12:58:22.627Z,100698.88
2022-10-23T13:01:00.537Z,100704.34
2022-10-23T13:03:31.088Z,100679.47
2022-10-23T13:06:11.436Z,100677.53
2022-10-23T13:08:46.871Z,100675.63
2022-10-23T13:11:19.979Z,100663.84
2022-10-23T13:13:48.555Z,100666.47
2022-10-23T13:16:26.131Z,100663.75
2022-10-23T13:18:54.430Z,100667.47
2022-10-23T13:21:24.035Z,100667.97
2022-10-23T13:24:00.571Z,100660.00
2022-10-23T13:26:45.457Z,100652.47
2022-10-23T13:29:54.599Z,100642.34
2022-10-23T13:32:27.002Z,100630.28
2022-10-23T13:35:23.288Z,100616.63
2022-10-23T13:37:48.941Z,100616.28
2022-10-23T13:40:26.043Z,100604.25
2022-10-23T13:42:57.138Z,100606.34
2022-10-23T13:45:26.770Z,100600.59
2022-10-23T13:47:53.389Z,100598.34
2022-10-23T13:50:20.156Z,100589.81
2022-10-23T13:52:46.732Z,100582.75
2022-10-23T13:55:24.388Z,100574.03
2022-10-23T13:57:50.968Z,100576.47
2022-10-23T14:00:25.451Z,100567.16
2022-10-23T14:02:52.005Z,100573.41
2022-10-23T14:05:18.480Z,100571.81
2022-10-23T14:07:45.286Z,100565.84
2022-10-23T14:10:11.825Z,100562.81
2022-10-23T14:12:40.577Z,100563.09
2022-10-23T14:15:22.806Z,100563.44
2022-10-23T14:17:53.284Z,100556.03
2022-10-23T14:20:25.753Z,100547.53
2022-10-23T14:22:54.161Z,100549.94
2022-10-23T14:25:20.661Z,100547.69
2022-10-23T14:27:53.080Z,100544.34
2022-10-23T14:30:19.493Z,100546.47
2022-10-23T14:32:46.283Z,100540.25
2022-10-23T14:35:12.776Z,100550.84
2022-10-23T14:37:39.441Z,100551.69
2022-10-23T14:40:06.506Z,100554.91
2022-10-23T14:42:34.450Z,100545.59
2022-10-23T14:45:02.565Z,100538.50
2022-10-23T14:47:37.251Z,100543.97
2022-10-23T14:50:04.298Z,100552.47
2022-10-23T14:52:30.659Z,100553.91
2022-10-23T14:54:57.044Z,100544.41
2022-10-23T14:57:23.588Z,100546.63
2022-10-23T14:59:53.457Z,100536.53
2022-10-23T15:02:19.874Z,100542.78
2022-10-23T15:04:46.252Z,100535.19
2022-10-23T15:07:12.605Z,100524.47
2022-10-23T15:09:42.116Z,100524.94
2022-10-23T15:12:22.908Z,100510.16
2022-10-23T15:14:49.281Z,100515.13
2022-10-23T15:17:15.972Z,100510.28
2022-10-23T15:19:42.399Z,100508.19
2022-10-23T15:22:08.772Z,100516.50
2022-10-23T15:24:35.238Z,100505.06
2022-10-23T15:27:02.055Z,100502.94
2022-10-23T15:29:28.573Z,100500.53
2022-10-23T15:31:57.639Z,100487.78
2022-10-23T15:34:26.747Z,100484.56
2022-10-23T15:36:54.835Z,100490.84
2022-10-23T15:39:27.584Z,100476.19
2022-10-23T15:41:56.592Z,100475.09
2022-10-23T15:44:25.110Z,100466.38
2022-10-23T15:46:51.970Z,100463.94
2022-10-23T15:49:19.667Z,100471.66
2022-10-23T15:51:46.425Z,100468.44
2022-10-23T15:54:19.162Z,100467.31
2022-10-23T15:56:48.120Z,100465.53
2022-10-23T15:59:15.340Z,100461.97
2022-10-23T16:01:53.128Z,100450.25
2022-10-23T16:04:20.041Z,100443.47
2022-10-23T16:06:51.276Z,100436.09
2022-10-23T16:09:17.723Z,100426.28
2022-10-23T16:11:46.235Z,100414.84
2022-10-23T16:14:17.118Z,100422.22
2022-10-23T16:16:43.869Z,100427.19
2022-10-23T16:19:11.724Z,100429.44
2022-10-23T16:21:38.441Z,100425.59
2022-10-23T16:24:08.556Z,100431.66
2022-10-23T16:27:01.532Z,100432.00
2022-10-23T16:29:29.528Z,100425.72
2022-10-23T16:31:56.955Z,100430.88
2022-10-23T16:34:23.512Z,100426.84
2022-10-23T16:36:49.978Z,100417.03
2022-10-23T16:39:19.760Z,100423.59
2022-10-23T16:41:58.550Z,100418.78
2022-10-23T16:44:25.019Z,100410.59
2022-10-23T16:47:20.310Z,100415.56
2022-10-23T16:49:46.647Z,100416.19
2022-10-23T16:52:39.972Z,100416.81
2022-10-23T16:55:06.856Z,100411.34
2022-10-23T16:57:34.923Z,100409.13
2022-10-23T17:00:01.564Z,100412.97
2022-10-23T17:02:28.030Z,100431.59
2022-10-23T17:05:13.704Z,100426.25
2022-10-23T17:07:51.245Z,100422.53
2022-10-23T17:10:17.757Z,100419.31
2022-10-23T17:12:44.084Z,100422.34
2022-10-23T17:15:11.069Z,100421.53
2022-10-23T17:17:37.507Z,100421.84
2022-10-23T17:20:04.366Z,100433.09
2022-10-23T17:22:43.683Z,100425.19
2022-10-23T17:25:14.205Z,100421.97
2022-10-23T17:27:48.656Z,100419.56
2022-10-23T17:30:15.014Z,100417.13
2022-10-23T17:32:48.696Z,100426.00
2022-10-23T17:35:15.056Z,100418.47
2022-10-23T17:38:08.204Z,100416.06
2022-10-23T17:40:34.810Z,100427.63
2022-10-23T17:43:01.208Z,100422.16
2022-10-23T17:45:27.720Z,100415.38
2022-10-23T17:47:56.194Z,100411.84
2022-10-23T17:50:22.522Z,100415.69
2022-10-23T17:52:52.859Z,100413.63
2022-10-23T17:55:19.176Z,100416.06
2022-10-23T17:57:45.854Z,100407.88
2022-10-23T18:00:12.749Z,100412.84
2022-10-23T18:02:39.128Z,100400.31
2022-10-23T18:05:06.023Z,100407.19
2022-10-23T18:07:32.384Z,100408.00
2022-10-23T18:10:06.069Z,100404.31
2022-10-23T18:12:32.436Z,100395.00
2022-10-23T18:15:00.819Z,100404.03
2022-10-23T18:17:30.215Z,100395.84
2022-10-23T18:20:01.675Z,100395.00
2022-10-23T18:22:33.110Z,100393.59
2022-10-23T18:25:00.995Z,100393.97
2022-10-23T18:27:27.348Z,100386.28
2022-10-23T18:29:54.084Z,100387.88
2022-10-23T18:32:20.674Z,100394.19
2022-10-23T18:35:11.073Z,100383.75
2022-10-23T18:37:44.544Z,100373.31
2022-10-23T18:40:12.655Z,100369.94
2022-10-23T18:42:39.112Z,100366.56
2022-10-23T18:45:13.963Z,100383.03
2022-10-23T18:47:50.573Z,100378.34
2022-10-23T18:50:17.199Z,100362.78
2022-10-23T18:52:48.564Z,100355.88
2022-10-23T18:55:15.041Z,100365.69
2022-10-23T18:57:41.975Z,100369.22
2022-10-23T19:00:10.232Z,100366.16
2022-10-23T19:02:37.734Z,100359.56
2022-10-23T19:05:06.233Z,100363.91
2022-10-23T19:07:34.017Z,100360.06
2022-10-23T19:10:02.353Z,100353.97
2022-10-23T19:12:28.800Z,100318.28
2022-10-23T19:14:55.774Z,100295.94
2022-10-23T19:17:28.305Z,100330.97
2022-10-23T19:20:16.843Z,100337.72
2022-10-23T19:22:46.245Z,100311.69
2022-10-23T19:25:30.724Z,100327.91
2022-10-23T19:28:02.869Z,100357.47
2022-10-23T19:30:29.671Z,100323.06
2022-10-23T19:32:56.165Z,100333.00
2022-10-23T19:35:23.273Z,100335.25
2022-10-23T19:37:57.556Z,100329.78
2022-10-23T19:40:24.259Z,100344.09
2022-10-23T19:42:50.866Z,100351.31
2022-10-23T19:45:17.728Z,100351.44
2022-10-23T19:47:46.098Z,100357.22
2022-10-23T19:50:12.733Z,100371.22
2022-10-23T19:52:39.174Z,100376.19
2022-10-23T19:55:15.743Z,100383.91
2022-10-23T19:57:45.610Z,100389.66
2022-10-23T20:00:12.853Z,100398.19
2022-10-23T20:02:39.406Z,100392.34
2022-10-23T20:05:06.415Z,100408.53
2022-10-23T20:07:37.033Z,100408.38
2022-10-23T20:10:05.711Z,100408.19
2022-10-23T20:12:32.177Z,100409.63
2022-10-23T20:14:58.716Z,100412.97
2022-10-23T20:17:25.089Z,100420.66
2022-10-23T20:20:07.058Z,100416.94
2022-10-23T20:22:43.118Z,100423.03
2022-10-23T20:25:10.556Z,100428.28
2022-10-23T20:28:24.684Z,100422.66
2022-10-23T20:31:10.866Z,100436.41
2022-10-23T20:33:39.183Z,100438.66
2022-10-23T20:36:07.271Z,100452.13
2022-10-23T20:38:53.705Z,100454.47
2022-10-23T20:41:22.170Z,100447.38
2022-10-23T20:43:57.848Z,100458.56
2022-10-23T20:46:46.094Z,100459.78
2022-10-23T20:49:16.132Z,100469.19
2022-10-23T20:51:57.869Z,100466.59
2022-10-23T20:54:38.225Z,100471.03
2022-10-23T20:57:05.616Z,100484.16
2022-10-23T20:59:33.983Z,100476.09
2022-10-23T21:02:00.727Z,100482.16
2022-10-23T21:05:26.191Z,100485.81
2022-10-23T21:07:52.539Z,100466.03
2022-10-23T21:10:18.903Z,100461.19
2022-10-23T21:12:45.583Z,100467.22
2022-10-23T21:15:20.285Z,100468.63
2022-10-23T21:17:49.627Z,100488.22
2022-10-23T21:20:17.176Z,100489.06
2022-10-23T21:22:44.071Z,100481.97
2022-10-23T21:25:10.823Z,100476.53
2022-10-23T21:27:37.285Z,100467.84
2022-10-23T21:30:20.063Z,100463.50
2022-10-23T21:32:46.530Z,100465.22
2022-10-23T21:35:31.383Z,100465.81
2022-10-23T21:38:11.708Z,100458.75
2022-10-23T21:40:38.087Z,100470.16
2022-10-23T21:43:05.290Z,100457.94
2022-10-23T21:45:35.203Z,100458.75
2022-10-23T21:48:01.537Z,100465.81
2022-10-23T21:50:27.921Z,100482.19
2022-10-23T21:52:54.305Z,100474.78
2022-10-23T21:55:37.176Z,100473.69
2022-10-23T21:58:03.576Z,100489.75
2022-10-23T22:00:30.004Z,100481.88
2022-10-23T22:02:56.381Z,100485.41
2022-10-23T22:05:32.964Z,100483.78
2022-10-23T22:07:59.445Z,100496.31
2022-10-23T22:10:31.775Z,100501.16
2022-10-23T22:12:58.142Z,100491.88
2022-10-23T22:15:35.798Z,100495.13
2022-10-23T22:18:18.518Z,100470.25
2022-10-23T22:21:03.949Z,100461.78
2022-10-23T22:23:30.599Z,100477.63
2022-10-23T22:25:57.307Z,100474.91
2022-10-23T22:28:24.563Z,100470.75
2022-10-23T22:30:50.947Z,100470.47
2022-10-23T22:33:17.280Z,100475.91
2022-10-23T22:35:43.680Z,100464.19
2022-10-23T22:38:18.159Z,100469.66
2022-10-23T22:40:46.755Z,100466.41
2022-10-23T22:43:13.248Z,100468.03
2022-10-23T22:45:42.796Z,100469.88
2022-10-23T22:48:13.124Z,100462.97
2022-10-23T22:50:39.468Z,100464.59
2022-10-23T22:53:05.847Z,100456.72
2022-10-23T22:55:32.209Z,100456.72
2022-10-23T22:57:58.587Z,100452.06
2022-10-23T23:05:30.367Z,100453.50
2022-10-23T23:07:57.792Z,100451.88
2022-10-23T23:10:24.196Z,100451.06
2022-10-23T23:12:58.581Z,100453.50
2022-10-23T23:15:24.959Z,100439.84
2022-10-23T23:18:01.643Z,100441.47
2022-10-23T23:20:31.096Z,100436.03
2022-10-23T23:23:00.660Z,100432.47
2022-10-23T23:25:27.024Z,100437.41
2022-10-23T23:27:53.386Z,100429.06
2022-10-23T23:30:20.735Z,100414.91
2022-10-23T23:32:48.201Z,100415.19
2022-10-23T23:35:14.707Z,100417.25
2022-10-23T23:37:41.127Z,100422.19
2022-10-23T23:40:08.076Z,100410.78
2022-10-23T23:42:34.432Z,100405.59
2022-10-23T23:45:14.302Z,100410.28
2022-10-23T23:47:41.754Z,100405.31
2022-10-23T23:50:17.048Z,100403.59
2022-10-23T23:52:43.511Z,100399.16
2022-10-23T23:55:16.913Z,100396.31
2022-10-23T23:57:43.631Z,100404.41
